Flight Track Log - Related Links

Times and Time Zones

All times are in EDT time to prevent confusion due to time zone crossing. See the N498QS flight status page for this flight to view local times or setup timezone preferences in your user account.

Time Position Orientation Groundspeed Altitude Reporting Facility
EDT Latitude Longitude Course Direction KTS MPH feet Rate Location/Type
Thu 17:29:20 35.9886 -115.1333 20° North 157 181 3,300  Level Los Angeles Center
Thu 17:29:37 35.9978 -115.1292 20° North 202 232 3,800 3,488 Climbing Los Angeles Center
Thu 17:30:03 36.0083 -115.0947 69° East 213 245 5,800 3,581 Climbing Los Angeles Center
Thu 17:30:39 35.9919 -115.0675 127° Southeast 260 299 7,500 3,061 Climbing Los Angeles Center
Thu 17:31:41 35.9175 -115.1031 201° Southwest 263 303 10,800 2,516 Climbing Los Angeles Center
Thu 17:32:43 35.8375 -115.1650 212° Southwest 318 366 12,700 2,274 Climbing Los Angeles Center
Thu 17:33:45 35.7475 -115.2336 212° Southwest 362 417 15,500 2,419 Climbing Los Angeles Center
Thu 17:34:47 35.6600 -115.3094 215° Southwest 379 436 17,700 2,274 Climbing Los Angeles Center
Thu 17:35:49 35.5864 -115.4144 229° Southwest 399 459 20,200 2,352 Climbing Los Angeles Center
Thu 17:36:52 35.5108 -115.5167 228° Southwest 403 464 22,600 2,208 Climbing Los Angeles Center
Thu 17:37:54 35.4256 -115.6319 228° Southwest 413 475 24,800 2,032 Climbing Los Angeles Center
Thu 17:38:56 35.3442 -115.7408 228° Southwest 429 494 26,800 1,548 Climbing Los Angeles Center
Thu 17:39:58 35.2614 -115.8514 227° Southwest 439 505 28,000 581 Climbing Los Angeles Center
Thu 17:41:00 35.1758 -115.9633 227° Southwest 447 514 28,000  Level Los Angeles Center
Thu 17:42:02 35.0764 -116.0967 228° Southwest 444 511 28,000  Level Los Angeles Center
Thu 17:43:04 34.9925 -116.2072 227° Southwest 443 510 28,000  Level Los Angeles Center
Thu 17:44:06 34.9083 -116.3178 227° Southwest 446 513 28,000  Level Los Angeles Center
Thu 17:45:08 34.8258 -116.4408 231° Southwest 470 541 28,000  Level Los Angeles Center
Thu 17:46:10 34.7750 -116.5861 247° West 469 540 28,000  Level Los Angeles Center
Thu 17:47:13 34.7494 -116.7383 258° West 462 532 28,000  Level Los Angeles Center
Thu 17:48:15 34.7233 -116.8928 258° West 467 537 28,000  Level Los Angeles Center
Thu 17:49:17 34.6894 -117.0756 257° West 463 533 28,000  Level Los Angeles Center
Thu 17:50:19 34.6617 -117.2311 258° West 468 539 28,000  Level Los Angeles Center
Thu 17:51:21 34.6336 -117.3867 258° West 470 541 28,000  Level Los Angeles Center
Thu 17:52:23 34.6044 -117.5428 257° West 470 541 28,000  Level Los Angeles Center
Thu 17:53:25 34.5783 -117.6956 258° West 464 534 28,000  Level Los Angeles Center
Thu 17:54:27 34.5500 -117.8503 258° West 468 539 28,000  Level Los Angeles Center
Thu 17:55:29 34.5200 -118.0050 257° West 469 540 28,000  Level Los Angeles Center
Thu 17:56:31 34.4894 -118.1822 258° West 470 541 28,000 -144 Level Los Angeles Center
Thu 17:57:34 34.4608 -118.3361 257° West 470 541 27,700 -480 Descending Los Angeles Center
Thu 17:58:36 34.4303 -118.4894 256° West 471 542 27,000 -532 Descending Los Angeles Center
Thu 17:59:38 34.3953 -118.6717 257° West 467 537 26,600 -1,161 Descending Los Angeles Center
Thu 18:00:40 34.3667 -118.8197 257° West 456 525 24,600 -1,500 Descending Los Angeles Center
Thu 18:01:42 34.3500 -118.9556 262° West 414 476 23,500 -1,452 Descending Los Angeles Center
Thu 18:02:44 34.3408 -119.0831 265° West 387 445 21,600 -2,308 Descending Los Angeles Center
Thu 18:03:52 34.2992 -119.2200 250° West 357 411 18,500 -2,613 Descending Los Angeles Center
Thu 18:04:48 34.2414 -119.3089 232° Southwest 357 411 16,200 -2,288 Descending Los Angeles Center
Thu 18:05:50 34.2111 -119.4142 251° West 337 388 14,000 -2,081 Descending Los Angeles Center
Thu 18:06:52 34.1992 -119.5161 262° West 318 366 11,900 -2,081 Descending Los Angeles Center
Thu 18:07:54 34.2503 -119.6014 306° West 312 359 9,700 -2,032 Descending Los Angeles Center
Thu 18:08:56 34.2917 -119.7044 296° West 291 335 7,700 -2,000 Descending Los Angeles Center
Thu 18:09:57 34.3297 -119.7675 306° West 265 305 5,600 -1,686 Descending Los Angeles Center
Thu 18:10:57 34.3817 -119.7300 31° Northeast 200 230 4,300 -1,736 Descending Los Angeles Center
Thu 18:11:58 34.4192 -119.7619 325° Northwest 178 205 2,100 -1,781 Descending Los Angeles Center
Thu 18:13:05 34.4303 -119.8122 285° West 175 201 500 -837 Descending Los Angeles Center
Thu 18:14:07 34.4367 -119.8606 279° West 170 196 300 -194 Descending Los Angeles Center

Login

Don't have an account? Register now (free) for customized features, flight alerts, and more!